Time;durP1;ratioP1;P1;durP2;ratioP2;P2;SDS_P1;SDS_P2;PMS_P1;PMS_P2;Temp;Humidity;BMP_temperature;BMP_pressure;BME280_temperature;BME280_humidity;BME280_pressure;Samples;Min_cycle;Max_cycle;Signal;HPM_P1;HPM_P2
2023/05/11 00:00:34;;;;;;;;;5.33;5.00;;;;;-147.17;100.00;-15917.19;5059270;28;51158;-69
2023/05/11 00:03:00;;;;;;;;;6.00;6.00;;;;;-147.17;100.00;-15917.19;5055804;28;51958;-70
2023/05/11 00:05:25;;;;;;;;;4.67;4.67;;;;;-147.17;100.00;-15917.19;5067543;28;51296;-70
2023/05/11 00:07:51;;;;;;;;;4.67;4.67;;;;;-147.17;100.00;-15917.19;5054614;28;51051;-70
2023/05/11 00:10:16;;;;;;;;;6.33;5.00;;;;;-147.17;100.00;-15917.19;5066899;28;51504;-68
2023/05/11 00:12:41;;;;;;;;;5.00;4.00;;;;;-147.17;100.00;-15917.19;5064092;28;50990;-70
2023/05/11 00:15:07;;;;;;;;;4.67;4.00;;;;;-147.17;100.00;-15917.19;5052039;28;51157;-70
2023/05/11 00:17:32;;;;;;;;;5.67;5.67;;;;;-147.17;100.00;-15917.19;5070984;28;51190;-70
2023/05/11 00:19:58;;;;;;;;;3.67;3.67;;;;;-147.17;100.00;-15917.19;5070495;28;51045;-70
2023/05/11 00:22:23;;;;;;;;;5.00;4.00;;;;;-147.17;100.00;-15917.19;5058476;28;53358;-70
2023/05/11 00:24:49;;;;;;;;;7.00;7.00;;;;;-147.17;100.00;-15917.19;5055704;28;51456;-69
2023/05/11 00:27:14;;;;;;;;;5.33;5.33;;;;;-147.17;100.00;-15917.19;5054415;28;51438;-70
2023/05/11 00:29:39;;;;;;;;;6.00;5.00;;;;;-147.17;100.00;-15917.19;5057790;28;51167;-71
2023/05/11 00:32:05;;;;;;;;;4.00;3.33;;;;;-147.17;100.00;-15917.19;5058854;28;60560;-70
2023/05/11 00:34:30;;;;;;;;;5.33;5.00;;;;;-147.17;100.00;-15917.19;5058844;28;55423;-70
2023/05/11 00:36:56;;;;;;;;;5.00;5.00;;;;;-147.17;100.00;-15917.19;5060053;28;52598;-70
2023/05/11 00:39:21;;;;;;;;;7.00;7.00;;;;;-147.17;100.00;-15917.19;5060382;28;51194;-69
2023/05/11 00:41:47;;;;;;;;;6.00;6.00;;;;;-147.17;100.00;-15917.19;5056752;28;51926;-70
2023/05/11 00:44:12;;;;;;;;;7.00;7.00;;;;;-147.17;100.00;-15917.19;5056123;28;51154;-70
2023/05/11 00:46:38;;;;;;;;;8.67;8.33;;;;;-147.17;100.00;-15917.19;5057761;28;51081;-70
2023/05/11 00:49:03;;;;;;;;;7.00;7.00;;;;;-147.17;100.00;-15917.19;5056047;28;52545;-69
2023/05/11 00:51:31;;;;;;;;;6.00;6.00;;;;;-147.17;100.00;-15917.19;5054805;28;52258;-70
2023/05/11 00:53:57;;;;;;;;;7.67;6.00;;;;;-147.17;100.00;-15917.19;5058590;28;51440;-70
2023/05/11 00:56:23;;;;;;;;;4.00;3.00;;;;;-147.17;100.00;-15917.19;5056734;28;51366;-70
2023/05/11 00:58:48;;;;;;;;;5.00;5.00;;;;;-147.17;100.00;-15917.19;5059898;28;51327;-70
2023/05/11 01:01:16;;;;;;;;;4.00;4.00;;;;;-147.17;100.00;-15917.19;5049338;28;51741;-70
2023/05/11 01:03:42;;;;;;;;;3.67;3.67;;;;;-147.17;100.00;-15917.19;5061891;28;51538;-69
2023/05/11 01:06:15;;;;;;;;;3.67;3.67;;;;;-147.17;100.00;-15917.19;5060745;28;51231;-71
2023/05/11 01:09:01;;;;;;;;;4.00;3.00;;;;;-147.17;100.00;-15917.19;5061090;28;51618;-70
2023/05/11 01:11:36;;;;;;;;;3.00;3.00;;;;;-147.17;100.00;-15917.19;5047057;28;52899;-69
2023/05/11 01:14:26;;;;;;;;;2.00;2.00;;;;;-147.17;100.00;-15917.19;5059647;28;51188;-69
2023/05/11 01:17:02;;;;;;;;;3.00;2.00;;;;;-147.17;100.00;-15917.19;5062296;28;51079;-69
2023/05/11 01:19:45;;;;;;;;;3.33;3.00;;;;;-147.17;100.00;-15917.19;5063510;28;51163;-68
2023/05/11 01:22:20;;;;;;;;;2.67;2.67;;;;;-147.17;100.00;-15917.19;5054055;28;51153;-70
2023/05/11 01:25:02;;;;;;;;;5.00;5.00;;;;;-147.17;100.00;-15917.19;5068457;28;51148;-69
2023/05/11 01:27:47;;;;;;;;;4.67;4.67;;;;;-147.17;100.00;-15917.19;5061111;28;51170;-72
2023/05/11 01:30:30;;;;;;;;;6.33;5.00;;;;;-147.17;100.00;-15917.19;5061792;28;51187;-70
2023/05/11 01:33:06;;;;;;;;;5.00;4.67;;;;;-147.17;100.00;-15917.19;5066878;28;52042;-68
2023/05/11 01:35:36;;;;;;;;;6.00;6.00;;;;;-147.17;100.00;-15917.19;5064085;28;51042;-70
2023/05/11 01:38:05;;;;;;;;;4.67;3.33;;;;;-147.17;100.00;-15917.19;5067588;28;51127;-69
2023/05/11 01:40:33;;;;;;;;;3.67;3.33;;;;;-147.17;100.00;-15917.19;5053449;28;52346;-70
2023/05/11 01:43:08;;;;;;;;;4.00;3.00;;;;;-147.17;100.00;-15917.19;5067300;28;52020;-69
2023/05/11 01:45:39;;;;;;;;;2.33;1.67;;;;;-147.17;100.00;-15917.19;5063155;28;51260;-70
2023/05/11 01:48:12;;;;;;;;;4.00;3.00;;;;;-147.17;100.00;-15917.19;5066295;28;51110;-70
2023/05/11 01:50:39;;;;;;;;;3.00;1.00;;;;;-147.17;100.00;-15917.19;5070803;28;51435;-69
2023/05/11 01:53:05;;;;;;;;;2.33;2.00;;;;;-147.17;100.00;-15917.19;5064764;28;51688;-69
2023/05/11 01:55:34;;;;;;;;;2.00;1.00;;;;;-147.17;100.00;-15917.19;5065351;28;51091;-69
2023/05/11 01:58:02;;;;;;;;;2.00;2.00;;;;;-147.17;100.00;-15917.19;5070941;28;51148;-70
2023/05/11 02:00:29;;;;;;;;;2.67;2.00;;;;;-147.17;100.00;-15917.19;5066846;28;51877;-69
2023/05/11 02:02:56;;;;;;;;;2.00;2.00;;;;;-147.17;100.00;-15917.19;5067059;28;51145;-68
2023/05/11 02:05:22;;;;;;;;;5.00;2.67;;;;;-147.17;100.00;-15917.19;5049452;28;51096;-71
2023/05/11 02:07:51;;;;;;;;;1.67;1.00;;;;;-147.17;100.00;-15917.19;5052199;28;51116;-69
2023/05/11 02:10:17;;;;;;;;;1.67;1.67;;;;;-147.17;100.00;-15917.19;5053085;28;50921;-69
2023/05/11 02:12:45;;;;;;;;;2.00;2.00;;;;;-147.17;100.00;-15917.19;5059213;28;52153;-70
2023/05/11 02:15:12;;;;;;;;;3.00;2.67;;;;;-147.17;100.00;-15917.19;5057388;28;51178;-70
2023/05/11 02:17:39;;;;;;;;;3.00;1.67;;;;;-147.17;100.00;-15917.19;5054525;28;51023;-71
2023/05/11 02:20:08;;;;;;;;;2.33;2.33;;;;;-147.17;100.00;-15917.19;5067758;28;51480;-71
2023/05/11 02:22:35;;;;;;;;;2.33;2.33;;;;;-147.17;100.00;-15917.19;5067691;28;53030;-70
2023/05/11 02:25:00;;;;;;;;;2.33;1.00;;;;;-147.17;100.00;-15917.19;5062873;28;51177;-70
2023/05/11 02:27:26;;;;;;;;;2.33;2.00;;;;;-147.17;100.00;-15917.19;5069494;28;51182;-70
2023/05/11 02:29:52;;;;;;;;;2.00;2.00;;;;;-147.17;100.00;-15917.19;5044532;28;51265;-70
2023/05/11 02:32:20;;;;;;;;;2.33;2.33;;;;;-147.17;100.00;-15917.19;5066061;28;51204;-70
2023/05/11 02:35:04;;;;;;;;;2.00;2.00;;;;;-147.17;100.00;-15917.19;5062439;28;51232;-70
2023/05/11 02:37:32;;;;;;;;;2.00;2.00;;;;;-147.17;100.00;-15917.19;5059441;28;51079;-69
2023/05/11 02:40:02;;;;;;;;;2.33;2.33;;;;;-147.17;100.00;-15917.19;5068982;28;51045;-71
2023/05/11 02:42:32;;;;;;;;;2.67;2.00;;;;;-147.17;100.00;-15917.19;5044395;28;51796;-70
2023/05/11 02:45:06;;;;;;;;;3.00;2.67;;;;;-147.17;100.00;-15917.19;5067418;28;51258;-70
2023/05/11 02:47:38;;;;;;;;;2.00;2.00;;;;;-147.17;100.00;-15917.19;5067376;28;51248;-69
2023/05/11 02:50:06;;;;;;;;;3.67;3.00;;;;;-147.17;100.00;-15917.19;5055734;28;51422;-71
2023/05/11 02:52:33;;;;;;;;;3.00;2.33;;;;;-147.17;100.00;-15917.19;5043969;28;52878;-69
2023/05/11 02:55:01;;;;;;;;;3.00;3.00;;;;;-147.17;100.00;-15917.19;5072036;28;51330;-69
2023/05/11 02:57:26;;;;;;;;;2.00;2.00;;;;;-147.17;100.00;-15917.19;5063104;27;51133;-70
2023/05/11 02:59:52;;;;;;;;;3.00;3.00;;;;;-147.17;100.00;-15917.19;5054942;28;51340;-71
2023/05/11 03:02:17;;;;;;;;;5.67;4.00;;;;;-147.17;100.00;-15917.19;5051790;28;51860;-70
2023/05/11 03:04:43;;;;;;;;;3.00;2.00;;;;;-147.17;100.00;-15917.19;5064002;28;51085;-70
2023/05/11 03:07:08;;;;;;;;;3.67;3.00;;;;;-147.17;100.00;-15917.19;5057903;28;50939;-70
2023/05/11 03:09:34;;;;;;;;;3.00;2.67;;;;;-147.17;100.00;-15917.19;5057694;28;51212;-70
2023/05/11 03:12:01;;;;;;;;;3.00;3.00;;;;;-147.17;100.00;-15917.19;5056853;28;51721;-70
2023/05/11 03:14:26;;;;;;;;;4.00;3.00;;;;;-147.17;100.00;-15917.19;5049009;28;51409;-70
2023/05/11 03:16:53;;;;;;;;;3.00;2.00;;;;;-147.17;100.00;-15917.19;5060331;28;50999;-70
2023/05/11 03:19:19;;;;;;;;;2.00;2.00;;;;;-147.17;100.00;-15917.19;5067171;28;51248;-70
2023/05/11 03:21:45;;;;;;;;;2.00;2.00;;;;;-147.17;100.00;-15917.19;5052662;28;51597;-69
2023/05/11 03:24:11;;;;;;;;;2.00;2.00;;;;;-147.17;100.00;-15917.19;5052531;28;51316;-73
2023/05/11 03:26:39;;;;;;;;;3.00;2.00;;;;;-147.17;100.00;-15917.19;5066092;28;53507;-70
2023/05/11 03:29:07;;;;;;;;;2.00;1.00;;;;;-147.17;100.00;-15917.19;5058930;28;51237;-69
2023/05/11 03:31:33;;;;;;;;;2.00;2.00;;;;;-147.17;100.00;-15917.19;5057104;28;51959;-70
2023/05/11 03:33:58;;;;;;;;;2.00;2.00;;;;;-147.17;100.00;-15917.19;5056632;28;51170;-69
2023/05/11 03:36:25;;;;;;;;;2.00;2.00;;;;;-147.17;100.00;-15917.19;5058761;28;51019;-71
2023/05/11 03:38:55;;;;;;;;;2.33;1.67;;;;;-147.17;100.00;-15917.19;5054579;28;51579;-70
2023/05/11 03:41:22;;;;;;;;;2.00;2.00;;;;;-147.17;100.00;-15917.19;5066126;28;52799;-69
2023/05/11 03:43:50;;;;;;;;;2.00;1.67;;;;;-147.17;100.00;-15917.19;5069440;28;51611;-70
2023/05/11 03:46:19;;;;;;;;;3.67;2.67;;;;;-147.17;100.00;-15917.19;5057566;28;51145;-70
2023/05/11 03:48:45;;;;;;;;;3.00;2.00;;;;;-147.17;100.00;-15917.19;5051537;28;51148;-71
2023/05/11 03:51:10;;;;;;;;;3.67;3.00;;;;;-147.17;100.00;-15917.19;5053315;28;52398;-70
2023/05/11 03:53:37;;;;;;;;;3.33;3.00;;;;;-147.17;100.00;-15917.19;5054538;28;50986;-69
2023/05/11 03:56:03;;;;;;;;;3.00;3.00;;;;;-147.17;100.00;-15917.19;5062002;28;51100;-70
2023/05/11 03:58:29;;;;;;;;;3.00;2.33;;;;;-147.17;100.00;-15917.19;5058139;28;51229;-70
2023/05/11 04:00:55;;;;;;;;;3.33;2.67;;;;;-147.17;100.00;-15917.19;5052960;28;51827;-70
2023/05/11 04:03:20;;;;;;;;;2.00;2.00;;;;;-147.17;100.00;-15917.19;5071280;28;51002;-70
2023/05/11 04:05:45;;;;;;;;;3.00;2.67;;;;;-147.17;100.00;-15917.19;5061763;28;51128;-70
2023/05/11 04:08:11;;;;;;;;;2.00;2.00;;;;;-147.17;100.00;-15917.19;5068005;28;51282;-69
2023/05/11 04:10:37;;;;;;;;;3.00;3.00;;;;;-147.17;100.00;-15917.19;5061914;28;51599;-70
2023/05/11 04:13:02;;;;;;;;;2.00;2.00;;;;;-147.17;100.00;-15917.19;5059390;28;51283;-70
2023/05/11 04:15:28;;;;;;;;;2.00;1.00;;;;;-147.17;100.00;-15917.19;5061568;28;50892;-70
2023/05/11 04:17:54;;;;;;;;;1.67;1.67;;;;;-147.17;100.00;-15917.19;5049593;28;51058;-70
2023/05/11 04:20:20;;;;;;;;;3.67;3.00;;;;;-147.17;100.00;-15917.19;5061968;28;51946;-70
2023/05/11 04:22:45;;;;;;;;;2.00;2.00;;;;;-147.17;100.00;-15917.19;5067366;28;51156;-70
2023/05/11 04:25:12;;;;;;;;;6.00;5.67;;;;;-147.17;100.00;-15917.19;5064049;28;51026;-70
2023/05/11 04:27:37;;;;;;;;;2.00;1.00;;;;;-147.17;100.00;-15917.19;5051030;28;51399;-70
2023/05/11 04:30:03;;;;;;;;;2.00;1.67;;;;;-147.17;100.00;-15917.19;5059757;28;52345;-69
2023/05/11 04:32:29;;;;;;;;;68.00;53.50;;;;;-147.17;100.00;-15917.19;5055177;28;51245;-69
2023/05/11 04:34:55;;;;;;;;;157.25;136.00;;;;;-147.17;100.00;-15917.19;5059787;28;51203;-70
2023/05/11 04:37:20;;;;;;;;;133.25;118.75;;;;;-147.17;100.00;-15917.19;5045454;28;51407;-70
2023/05/11 04:39:45;;;;;;;;;76.75;62.00;;;;;-147.17;100.00;-15917.19;5037531;28;51779;-70
2023/05/11 04:42:11;;;;;;;;;17.25;16.25;;;;;-147.17;100.00;-15917.19;5052625;28;51149;-70
2023/05/11 04:44:36;;;;;;;;;13.75;13.50;;;;;-147.17;100.00;-15917.19;5031711;28;51133;-68
2023/05/11 04:47:01;;;;;;;;;58.00;47.00;;;;;-147.17;100.00;-15917.19;5044935;28;51784;-70
2023/05/11 04:49:26;;;;;;;;;56.50;46.00;;;;;-147.17;100.00;-15917.19;5034987;28;55345;-69
2023/05/11 04:51:52;;;;;;;;;75.50;61.00;;;;;-147.17;100.00;-15917.19;5043121;28;51030;-69
2023/05/11 04:54:17;;;;;;;;;87.33;81.00;;;;;-147.17;100.00;-15917.19;5038394;28;57503;-70
2023/05/11 04:56:42;;;;;;;;;82.50;71.50;;;;;-147.17;100.00;-15917.19;5034020;28;51369;-70
2023/05/11 04:59:09;;;;;;;;;54.00;45.25;;;;;-147.17;100.00;-15917.19;5032118;28;53437;-70
2023/05/11 05:01:34;;;;;;;;;29.00;27.25;;;;;-147.17;100.00;-15917.19;5050133;28;51223;-71
2023/05/11 05:04:00;;;;;;;;;22.00;19.50;;;;;-147.17;100.00;-15917.19;5031771;28;51229;-71
2023/05/11 05:06:25;;;;;;;;;9.67;9.33;;;;;-147.17;100.00;-15917.19;5042566;28;52967;-70
2023/05/11 05:08:50;;;;;;;;;7.00;6.00;;;;;-147.17;100.00;-15917.19;5048149;28;51226;-69
2023/05/11 05:11:16;;;;;;;;;5.00;5.00;;;;;-147.17;100.00;-15917.19;5039274;28;51234;-70
2023/05/11 05:13:42;;;;;;;;;8.33;6.67;;;;;-147.17;100.00;-15917.19;5044346;28;51450;-69
2023/05/11 05:16:07;;;;;;;;;10.33;8.67;;;;;-147.17;100.00;-15917.19;5036343;28;51958;-70
2023/05/11 05:18:32;;;;;;;;;5.33;5.33;;;;;-147.17;100.00;-15917.19;5041566;28;62602;-70
2023/05/11 05:20:58;;;;;;;;;7.33;7.33;;;;;-147.17;100.00;-15917.19;5048799;28;51337;-70
2023/05/11 05:23:23;;;;;;;;;5.00;5.00;;;;;-147.17;100.00;-15917.19;5044356;28;51250;-71
2023/05/11 05:25:48;;;;;;;;;6.00;6.00;;;;;-147.17;100.00;-15917.19;5040867;28;51217;-71
2023/05/11 05:28:14;;;;;;;;;7.00;6.00;;;;;-147.17;100.00;-15917.19;5045203;28;61207;-71
2023/05/11 05:30:39;;;;;;;;;4.00;3.33;;;;;-147.17;100.00;-15917.19;5059075;28;51271;-71
2023/05/11 05:33:05;;;;;;;;;6.67;5.67;;;;;-147.17;100.00;-15917.19;5042139;28;51359;-71
2023/05/11 05:35:30;;;;;;;;;5.67;5.67;;;;;-147.17;100.00;-15917.19;5054085;28;51271;-71
2023/05/11 05:37:56;;;;;;;;;5.33;3.33;;;;;-147.17;100.00;-15917.19;5048096;28;51749;-70
2023/05/11 05:40:21;;;;;;;;;5.00;5.00;;;;;-147.17;100.00;-15917.19;5050554;28;52069;-70
2023/05/11 05:42:47;;;;;;;;;5.00;5.00;;;;;-147.17;100.00;-15917.19;5049735;28;51130;-70
2023/05/11 05:45:12;;;;;;;;;10.33;10.00;;;;;-147.17;100.00;-15917.19;5033968;28;51231;-71
2023/05/11 05:47:38;;;;;;;;;5.67;5.67;;;;;-147.17;100.00;-15917.19;5033953;28;51095;-69
2023/05/11 05:50:05;;;;;;;;;6.00;5.00;;;;;-147.17;100.00;-15917.19;5032007;28;51113;-71
2023/05/11 05:52:30;;;;;;;;;3.67;3.00;;;;;-147.17;100.00;-15917.19;5047496;28;52809;-71
2023/05/11 05:54:55;;;;;;;;;5.00;5.00;;;;;-147.17;100.00;-15917.19;5042965;28;51426;-70
2023/05/11 05:57:21;;;;;;;;;5.67;5.00;;;;;-147.17;100.00;-15917.19;5050520;28;51603;-70
2023/05/11 05:59:46;;;;;;;;;6.67;5.67;;;;;-147.17;100.00;-15917.19;5040701;28;51022;-69
2023/05/11 06:02:12;;;;;;;;;8.33;7.33;;;;;-147.17;100.00;-15917.19;5035081;28;51275;-70
2023/05/11 06:04:38;;;;;;;;;5.33;5.33;;;;;-147.17;100.00;-15917.19;5034223;28;51322;-71
2023/05/11 06:07:03;;;;;;;;;8.00;8.00;;;;;-147.17;100.00;-15917.19;5019694;28;52457;-70
2023/05/11 06:09:28;;;;;;;;;8.33;7.67;;;;;-147.17;100.00;-15917.19;5039488;28;51169;-70
2023/05/11 06:11:53;;;;;;;;;6.33;5.00;;;;;-147.17;100.00;-15917.19;5040074;28;51260;-70
2023/05/11 06:14:21;;;;;;;;;5.33;5.33;;;;;-147.17;100.00;-15917.19;5043777;28;51517;-69
2023/05/11 06:16:46;;;;;;;;;6.00;5.00;;;;;-147.17;100.00;-15917.19;5051577;28;52927;-69
2023/05/11 06:19:12;;;;;;;;;5.00;4.33;;;;;-147.17;100.00;-15917.19;5051982;28;51059;-69
2023/05/11 06:21:40;;;;;;;;;5.00;5.00;;;;;-147.17;100.00;-15917.19;5040072;28;51037;-69
2023/05/11 06:24:05;;;;;;;;;6.00;6.00;;;;;-147.17;100.00;-15917.19;5051867;28;52371;-69
2023/05/11 06:26:31;;;;;;;;;5.67;4.67;;;;;-147.17;100.00;-15917.19;5046099;28;52141;-68
2023/05/11 06:28:56;;;;;;;;;4.00;4.00;;;;;-147.17;100.00;-15917.19;5048671;28;51094;-68
2023/05/11 06:31:23;;;;;;;;;6.33;5.33;;;;;-147.17;100.00;-15917.19;5047821;28;51395;-70
2023/05/11 06:33:48;;;;;;;;;6.00;6.00;;;;;-147.17;100.00;-15917.19;5044771;28;51363;-69
2023/05/11 06:36:13;;;;;;;;;8.00;7.00;;;;;-147.17;100.00;-15917.19;5035714;28;51594;-69
2023/05/11 06:38:39;;;;;;;;;7.33;6.33;;;;;-147.17;100.00;-15917.19;5041249;28;51063;-69
2023/05/11 06:41:05;;;;;;;;;5.67;5.67;;;;;-147.17;100.00;-15917.19;5052883;28;51279;-69
2023/05/11 06:43:31;;;;;;;;;7.00;6.00;;;;;-147.17;100.00;-15917.19;5045591;28;51152;-68
2023/05/11 06:45:56;;;;;;;;;6.00;6.00;;;;;-147.17;100.00;-15917.19;5051102;28;52165;-68
2023/05/11 06:48:28;;;;;;;;;12.00;9.00;;;;;-147.17;100.00;-15917.19;5031226;28;51302;-70
2023/05/11 06:50:54;;;;;;;;;8.00;7.33;;;;;-147.17;100.00;-15917.19;5047733;28;51110;-69
2023/05/11 06:53:19;;;;;;;;;6.00;6.00;;;;;-147.17;100.00;-15917.19;5052066;28;51197;-68
2023/05/11 06:55:45;;;;;;;;;6.00;6.00;;;;;-147.17;100.00;-15917.19;5035202;28;51157;-70
2023/05/11 06:58:10;;;;;;;;;10.33;10.00;;;;;-147.17;100.00;-15917.19;5034159;28;51250;-69
2023/05/11 07:00:36;;;;;;;;;9.67;9.00;;;;;-147.17;100.00;-15917.19;5049898;28;51237;-69
2023/05/11 07:03:01;;;;;;;;;7.67;7.00;;;;;-147.17;100.00;-15917.19;5039157;28;51083;-68
2023/05/11 07:05:26;;;;;;;;;9.00;8.00;;;;;-147.17;100.00;-15917.19;5037043;28;51128;-69
2023/05/11 07:07:52;;;;;;;;;9.33;9.00;;;;;-147.17;100.00;-15917.19;5032577;28;51164;-69
2023/05/11 07:10:17;;;;;;;;;10.00;10.00;;;;;-147.17;100.00;-15917.19;5052684;28;51061;-69
2023/05/11 07:12:42;;;;;;;;;10.00;9.67;;;;;-147.17;100.00;-15917.19;5053078;28;51155;-67
2023/05/11 07:15:08;;;;;;;;;9.67;9.00;;;;;-147.17;100.00;-15917.19;5051974;28;51944;-68
2023/05/11 07:17:33;;;;;;;;;8.00;8.00;;;;;-147.17;100.00;-15917.19;5044139;28;51027;-68
2023/05/11 07:19:59;;;;;;;;;8.00;8.00;;;;;-147.17;100.00;-15917.19;5032935;28;50925;-68
2023/05/11 07:22:25;;;;;;;;;10.00;9.00;;;;;-147.17;100.00;-15917.19;5045928;28;51083;-68
2023/05/11 07:24:50;;;;;;;;;8.00;8.00;;;;;-147.17;100.00;-15917.19;5051895;28;51010;-68
2023/05/11 07:27:15;;;;;;;;;8.67;8.00;;;;;-147.17;100.00;-15917.19;5049186;28;51120;-69
2023/05/11 07:29:41;;;;;;;;;10.33;10.33;;;;;-147.17;100.00;-15917.19;5034107;28;51033;-69
2023/05/11 07:32:06;;;;;;;;;10.00;9.00;;;;;-147.17;100.00;-15917.19;5031200;28;51154;-70
2023/05/11 07:34:32;;;;;;;;;10.33;9.67;;;;;-147.17;100.00;-15917.19;5032481;28;52017;-69
2023/05/11 07:36:57;;;;;;;;;11.33;8.00;;;;;-147.17;100.00;-15917.19;5041155;28;51106;-69
2023/05/11 07:39:22;;;;;;;;;10.67;8.33;;;;;-147.17;100.00;-15917.19;5031363;28;51219;-69
2023/05/11 07:41:47;;;;;;;;;9.33;8.33;;;;;-147.17;100.00;-15917.19;5042728;28;51595;-69
2023/05/11 07:44:13;;;;;;;;;10.00;9.00;;;;;-147.17;100.00;-15917.19;5052216;28;61207;-69
2023/05/11 07:46:38;;;;;;;;;8.67;8.00;;;;;-147.17;100.00;-15917.19;5051063;28;51208;-68
2023/05/11 07:49:04;;;;;;;;;9.67;9.67;;;;;-147.17;100.00;-15917.19;5043259;28;51069;-69
2023/05/11 07:51:29;;;;;;;;;9.00;8.00;;;;;-147.17;100.00;-15917.19;5034018;28;51341;-69
2023/05/11 07:53:55;;;;;;;;;9.67;9.00;;;;;-147.17;100.00;-15917.19;5044620;28;51047;-68
2023/05/11 07:56:20;;;;;;;;;7.67;7.67;;;;;-147.17;100.00;-15917.19;5051556;28;51152;-69
2023/05/11 07:58:45;;;;;;;;;9.33;8.67;;;;;-147.17;100.00;-15917.19;5052582;28;51255;-69
2023/05/11 08:01:11;;;;;;;;;10.00;10.00;;;;;-147.17;100.00;-15917.19;5049963;28;51206;-69
2023/05/11 08:03:36;;;;;;;;;10.67;10.00;;;;;-147.17;100.00;-15917.19;5040683;28;51659;-67
2023/05/11 08:06:02;;;;;;;;;13.33;12.33;;;;;-147.17;100.00;-15917.19;5030480;28;51020;-68
2023/05/11 08:08:29;;;;;;;;;9.33;9.00;;;;;-147.17;100.00;-15917.19;5014369;28;51129;-68
2023/05/11 08:10:54;;;;;;;;;9.33;8.33;;;;;-147.17;100.00;-15917.19;5033614;28;50906;-68
2023/05/11 08:13:20;;;;;;;;;9.33;9.00;;;;;-147.17;100.00;-15917.19;5040448;28;51655;-68
2023/05/11 08:15:45;;;;;;;;;8.33;8.00;;;;;-147.17;100.00;-15917.19;5050939;28;50950;-68
2023/05/11 08:18:11;;;;;;;;;8.67;8.67;;;;;-147.17;100.00;-15917.19;5048004;28;51543;-67
2023/05/11 08:20:38;;;;;;;;;10.33;10.33;;;;;-147.17;100.00;-15917.19;5037626;28;51217;-68
2023/05/11 08:23:03;;;;;;;;;11.00;9.00;;;;;-147.17;100.00;-15917.19;5032426;28;52048;-69
2023/05/11 08:25:29;;;;;;;;;7.67;7.67;;;;;-147.17;100.00;-15917.19;5051936;28;51173;-69
2023/05/11 08:27:54;;;;;;;;;17.33;14.00;;;;;-147.17;100.00;-15917.19;5050930;28;50913;-67
2023/05/11 08:30:19;;;;;;;;;13.00;11.33;;;;;-147.17;100.00;-15917.19;5051954;28;51174;-69
2023/05/11 08:32:45;;;;;;;;;9.33;9.00;;;;;-147.17;100.00;-15917.19;5036593;28;51591;-69
2023/05/11 08:35:12;;;;;;;;;10.00;9.67;;;;;-147.17;100.00;-15917.19;5039358;28;51091;-69
2023/05/11 08:37:37;;;;;;;;;13.50;13.25;;;;;-147.17;100.00;-15917.19;5048887;28;51999;-68
2023/05/11 08:40:03;;;;;;;;;6.67;6.33;;;;;-147.17;100.00;-15917.19;5050207;28;51162;-70
2023/05/11 08:42:32;;;;;;;;;12.00;11.00;;;;;-147.17;100.00;-15917.19;5048723;28;51779;-69
2023/05/11 08:44:58;;;;;;;;;10.67;10.67;;;;;-147.17;100.00;-15917.19;5044550;28;50980;-68
2023/05/11 08:47:26;;;;;;;;;9.00;9.00;;;;;-147.17;100.00;-15917.19;5043504;28;51082;-68
2023/05/11 08:49:52;;;;;;;;;8.00;8.00;;;;;-147.17;100.00;-15917.19;5047491;28;51353;-68
2023/05/11 08:52:17;;;;;;;;;9.33;9.33;;;;;-147.17;100.00;-15917.19;5050245;28;51168;-68
2023/05/11 08:54:44;;;;;;;;;11.00;11.00;;;;;-147.17;100.00;-15917.19;5043440;28;50987;-68
2023/05/11 08:57:12;;;;;;;;;8.00;8.00;;;;;-147.17;100.00;-15917.19;5032434;28;51128;-69
2023/05/11 08:59:38;;;;;;;;;9.33;9.33;;;;;-147.17;100.00;-15917.19;5031795;28;50884;-68
2023/05/11 09:02:05;;;;;;;;;10.00;9.00;;;;;-147.17;100.00;-15917.19;5031269;28;51692;-69
2023/05/11 09:04:32;;;;;;;;;10.67;8.00;;;;;-147.17;100.00;-15917.19;5031477;28;51165;-70
2023/05/11 09:06:58;;;;;;;;;9.33;9.33;;;;;-147.17;100.00;-15917.19;5031842;28;51042;-68
2023/05/11 09:09:24;;;;;;;;;9.33;8.33;;;;;-147.17;100.00;-15917.19;5043734;28;51236;-68
2023/05/11 09:11:50;;;;;;;;;10.33;10.00;;;;;-147.17;100.00;-15917.19;5012890;28;52869;-69
2023/05/11 09:14:15;;;;;;;;;8.67;8.33;;;;;-147.17;100.00;-15917.19;5038353;28;51071;-69
2023/05/11 09:16:41;;;;;;;;;7.67;7.67;;;;;-147.17;100.00;-15917.19;5051480;28;51088;-68
2023/05/11 09:19:06;;;;;;;;;11.67;9.00;;;;;-147.17;100.00;-15917.19;5054123;28;51395;-68
2023/05/11 09:21:32;;;;;;;;;13.00;12.00;;;;;-147.17;100.00;-15917.19;5054304;28;51592;-68
2023/05/11 09:23:58;;;;;;;;;11.67;10.33;;;;;-147.17;100.00;-15917.19;5046288;28;50980;-69
2023/05/11 09:26:25;;;;;;;;;11.00;11.00;;;;;-147.17;100.00;-15917.19;5034215;28;51153;-68
2023/05/11 09:28:52;;;;;;;;;11.00;10.33;;;;;-147.17;100.00;-15917.19;5034768;28;51118;-68
2023/05/11 09:31:38;;;;;;;;;12.67;11.00;;;;;-147.17;100.00;-15917.19;5033806;28;50999;-68
2023/05/11 09:34:16;;;;;;;;;9.67;9.33;;;;;-147.17;100.00;-15917.19;5034147;28;51285;-67
2023/05/11 09:36:55;;;;;;;;;10.33;8.33;;;;;-147.17;100.00;-15917.19;5054352;28;51116;-67
2023/05/11 09:39:35;;;;;;;;;7.00;7.00;;;;;-147.17;100.00;-15917.19;5052594;28;51199;-68
2023/05/11 09:42:30;;;;;;;;;8.33;8.00;;;;;-147.17;100.00;-15917.19;5016313;28;51123;-68
2023/05/11 09:44:56;;;;;;;;;8.67;8.67;;;;;-147.17;100.00;-15917.19;5036440;28;50861;-67
2023/05/11 09:47:21;;;;;;;;;9.00;8.67;;;;;-147.17;100.00;-15917.19;5054043;28;51147;-67
2023/05/11 09:49:47;;;;;;;;;8.33;8.00;;;;;-147.17;100.00;-15917.19;5054182;28;51194;-68
2023/05/11 09:52:15;;;;;;;;;7.00;6.00;;;;;-147.17;100.00;-15917.19;5053963;28;51789;-68
2023/05/11 09:54:46;;;;;;;;;7.33;7.33;;;;;-147.17;100.00;-15917.19;5053436;28;51042;-68
2023/05/11 09:57:25;;;;;;;;;12.00;11.00;;;;;-147.17;100.00;-15917.19;5052336;28;51121;-68
2023/05/11 09:59:50;;;;;;;;;10.33;9.33;;;;;-147.17;100.00;-15917.19;5033948;28;51072;-68
2023/05/11 10:02:20;;;;;;;;;10.67;10.00;;;;;-147.17;100.00;-15917.19;5033281;28;51032;-69
2023/05/11 10:04:47;;;;;;;;;9.33;9.33;;;;;-147.17;100.00;-15917.19;5033397;28;51063;-68
2023/05/11 10:07:30;;;;;;;;;8.00;8.00;;;;;-147.17;100.00;-15917.19;5035309;28;51184;-68
2023/05/11 10:10:03;;;;;;;;;9.33;8.00;;;;;-147.17;100.00;-15917.19;5040959;28;50880;-68
2023/05/11 10:12:32;;;;;;;;;19.25;18.25;;;;;-147.17;100.00;-15917.19;5013153;28;53388;-68
2023/05/11 10:15:08;;;;;;;;;7.67;7.67;;;;;-147.17;100.00;-15917.19;5012733;28;51012;-68
2023/05/11 10:17:35;;;;;;;;;6.67;6.67;;;;;-147.17;100.00;-15917.19;5022144;28;51152;-69
2023/05/11 10:20:03;;;;;;;;;9.00;8.33;;;;;-147.17;100.00;-15917.19;5031127;28;51016;-68
2023/05/11 10:22:29;;;;;;;;;11.00;10.67;;;;;-147.17;100.00;-15917.19;5021153;28;53930;-68
2023/05/11 10:24:58;;;;;;;;;8.00;8.00;;;;;-147.17;100.00;-15917.19;5016675;28;51072;-69
2023/05/11 10:27:24;;;;;;;;;9.33;9.00;;;;;-147.17;100.00;-15917.19;5012907;28;51189;-68
2023/05/11 10:29:50;;;;;;;;;10.00;8.00;;;;;-147.17;100.00;-15917.19;5013114;28;51047;-68
2023/05/11 10:32:18;;;;;;;;;9.67;9.00;;;;;-147.17;100.00;-15917.19;5012763;28;51994;-68
2023/05/11 10:34:49;;;;;;;;;8.00;8.00;;;;;-147.17;100.00;-15917.19;5030137;28;50927;-68
2023/05/11 10:37:15;;;;;;;;;13.00;11.00;;;;;-147.17;100.00;-15917.19;5032746;28;51120;-68
2023/05/11 10:39:42;;;;;;;;;8.00;7.33;;;;;-147.17;100.00;-15917.19;5033136;28;51056;-68
2023/05/11 10:42:08;;;;;;;;;7.00;7.00;;;;;-147.17;100.00;-15917.19;5032113;28;53135;-67
2023/05/11 10:45:03;;;;;;;;;6.33;6.33;;;;;-147.17;100.00;-15917.19;5032874;28;51120;-67
2023/05/11 10:47:58;;;;;;;;;9.00;9.00;;;;;-147.17;100.00;-15917.19;5030458;28;51127;-68
2023/05/11 10:50:29;;;;;;;;;8.00;8.00;;;;;-147.17;100.00;-15917.19;5013413;28;50907;-69
2023/05/11 10:53:13;;;;;;;;;11.00;10.00;;;;;-147.17;100.00;-15917.19;5019208;28;53182;-67
2023/05/11 10:56:15;;;;;;;;;8.33;8.00;;;;;-147.17;100.00;-15917.19;5017626;28;51115;-69
2023/05/11 10:58:44;;;;;;;;;9.33;8.67;;;;;-147.17;100.00;-15917.19;5012950;28;51134;-68
2023/05/11 11:01:18;;;;;;;;;8.00;8.00;;;;;-147.17;100.00;-15917.19;5013318;28;51029;-69